Quito, Mississippi
Current Conditions -  °F | °C
As of 11:53 PM on Wednesday 28 Jan 2015 (Local Time) from KGWO Reporting Station
Clear Clear  
Wind Chill: 53°   Ceiling: Unl
Heat Index: 53°   Visibility: 10mi
Dew Point: 37°   Wind: 12mph
Humidity: 55%   Direction: 180°S
Pressure: 30.14"   Gusts: NA
Location:  33.4064°N, 90.3812°W
Report Text: KGWO 290553Z AUTO 18010KT 10SM CLR 12/03 A3014 RMK AO2 SLP205 T01170028 10144 20100 401890006 58000
Loading
Personal Weather Stations






























Interactive Weather Map New forecast layout! Learn more

10-Day Weather Forecast

Advertisements
Track Severe Weather on mobile